sensor_id;sensor_type;location;lat;lon;timestamp;temperature;humidity
26990;DHT22;14537;47.788;11.858;2023-05-10T00:00:43;12.20;99.90
26990;DHT22;14537;47.788;11.858;2023-05-10T00:03:09;12.20;99.90
26990;DHT22;14537;47.788;11.858;2023-05-10T00:05:35;12.20;99.90
26990;DHT22;14537;47.788;11.858;2023-05-10T00:08:00;12.10;99.90
26990;DHT22;14537;47.788;11.858;2023-05-10T00:10:26;12.00;99.90
26990;DHT22;14537;47.788;11.858;2023-05-10T00:12:51;12.00;99.90
26990;DHT22;14537;47.788;11.858;2023-05-10T00:15:17;12.00;99.90
26990;DHT22;14537;47.788;11.858;2023-05-10T00:17:43;12.00;99.90
26990;DHT22;14537;47.788;11.858;2023-05-10T00:20:09;12.00;99.90
26990;DHT22;14537;47.788;11.858;2023-05-10T00:22:35;12.00;99.90
26990;DHT22;14537;47.788;11.858;2023-05-10T00:25:00;12.00;99.90
26990;DHT22;14537;47.788;11.858;2023-05-10T00:27:26;12.00;99.90
26990;DHT22;14537;47.788;11.858;2023-05-10T00:29:52;12.00;99.90
26990;DHT22;14537;47.788;11.858;2023-05-10T00:32:17;12.00;99.90
26990;DHT22;14537;47.788;11.858;2023-05-10T00:34:43;11.90;99.90
26990;DHT22;14537;47.788;11.858;2023-05-10T00:37:08;11.90;99.90
26990;DHT22;14537;47.788;11.858;2023-05-10T00:39:34;11.90;99.90
26990;DHT22;14537;47.788;11.858;2023-05-10T00:42:00;11.90;99.90
26990;DHT22;14537;47.788;11.858;2023-05-10T00:44:25;11.90;99.90
26990;DHT22;14537;47.788;11.858;2023-05-10T00:46:51;12.00;99.90
26990;DHT22;14537;47.788;11.858;2023-05-10T00:49:17;11.90;99.90
26990;DHT22;14537;47.788;11.858;2023-05-10T00:51:44;12.00;99.90
26990;DHT22;14537;47.788;11.858;2023-05-10T00:54:14;12.00;99.90
26990;DHT22;14537;47.788;11.858;2023-05-10T00:56:40;12.00;99.90
26990;DHT22;14537;47.788;11.858;2023-05-10T00:59:07;12.00;99.90
26990;DHT22;14537;47.788;11.858;2023-05-10T01:01:33;12.00;99.90
26990;DHT22;14537;47.788;11.858;2023-05-10T01:03:59;12.00;99.90
26990;DHT22;14537;47.788;11.858;2023-05-10T01:06:25;12.00;99.90
26990;DHT22;14537;47.788;11.858;2023-05-10T01:08:50;11.90;99.90
26990;DHT22;14537;47.788;11.858;2023-05-10T01:11:16;11.90;99.90
26990;DHT22;14537;47.788;11.858;2023-05-10T01:13:43;11.90;99.90
26990;DHT22;14537;47.788;11.858;2023-05-10T01:16:12;11.90;99.90
26990;DHT22;14537;47.788;11.858;2023-05-10T01:18:40;11.90;99.90
26990;DHT22;14537;47.788;11.858;2023-05-10T01:34:27;11.90;99.90
26990;DHT22;14537;47.788;11.858;2023-05-10T01:37:09;11.90;99.90
26990;DHT22;14537;47.788;11.858;2023-05-10T01:42:16;11.80;99.90
26990;DHT22;14537;47.788;11.858;2023-05-10T01:47:37;11.70;99.90
26990;DHT22;14537;47.788;11.858;2023-05-10T01:50:07;11.70;99.90
26990;DHT22;14537;47.788;11.858;2023-05-10T01:52:41;11.70;99.90
26990;DHT22;14537;47.788;11.858;2023-05-10T01:55:13;11.60;99.90
26990;DHT22;14537;47.788;11.858;2023-05-10T01:57:40;11.70;99.90
26990;DHT22;14537;47.788;11.858;2023-05-10T02:00:08;11.60;99.90
26990;DHT22;14537;47.788;11.858;2023-05-10T02:02:37;11.60;99.90
26990;DHT22;14537;47.788;11.858;2023-05-10T02:05:05;11.50;99.90
26990;DHT22;14537;47.788;11.858;2023-05-10T02:07:34;11.60;99.90
26990;DHT22;14537;47.788;11.858;2023-05-10T02:10:05;11.60;99.90
26990;DHT22;14537;47.788;11.858;2023-05-10T02:12:32;11.50;99.90
26990;DHT22;14537;47.788;11.858;2023-05-10T02:15:01;11.40;99.90
26990;DHT22;14537;47.788;11.858;2023-05-10T02:17:28;11.40;99.90
26990;DHT22;14537;47.788;11.858;2023-05-10T02:19:56;11.40;99.90
26990;DHT22;14537;47.788;11.858;2023-05-10T02:22:23;11.50;99.90
26990;DHT22;14537;47.788;11.858;2023-05-10T02:24:49;11.50;99.90
26990;DHT22;14537;47.788;11.858;2023-05-10T02:27:17;11.50;99.90
26990;DHT22;14537;47.788;11.858;2023-05-10T02:29:43;11.50;99.90
26990;DHT22;14537;47.788;11.858;2023-05-10T02:32:10;11.50;99.90
26990;DHT22;14537;47.788;11.858;2023-05-10T02:34:36;11.50;99.90
26990;DHT22;14537;47.788;11.858;2023-05-10T02:37:02;11.50;99.90
26990;DHT22;14537;47.788;11.858;2023-05-10T02:39:29;11.50;99.90
26990;DHT22;14537;47.788;11.858;2023-05-10T02:41:57;11.60;99.90
26990;DHT22;14537;47.788;11.858;2023-05-10T02:44:23;11.50;99.90
26990;DHT22;14537;47.788;11.858;2023-05-10T02:46:50;11.60;99.90
26990;DHT22;14537;47.788;11.858;2023-05-10T02:49:16;11.60;99.90
26990;DHT22;14537;47.788;11.858;2023-05-10T02:51:44;11.50;99.90
26990;DHT22;14537;47.788;11.858;2023-05-10T02:54:26;11.50;99.90
26990;DHT22;14537;47.788;11.858;2023-05-10T02:57:00;11.60;99.90
26990;DHT22;14537;47.788;11.858;2023-05-10T02:59:26;11.60;99.90
26990;DHT22;14537;47.788;11.858;2023-05-10T03:01:52;11.60;99.90
26990;DHT22;14537;47.788;11.858;2023-05-10T03:04:18;11.60;99.90
26990;DHT22;14537;47.788;11.858;2023-05-10T03:06:44;11.70;99.90
26990;DHT22;14537;47.788;11.858;2023-05-10T03:09:10;11.70;99.90
26990;DHT22;14537;47.788;11.858;2023-05-10T03:15:13;11.60;99.90
26990;DHT22;14537;47.788;11.858;2023-05-10T03:17:55;11.70;99.90
26990;DHT22;14537;47.788;11.858;2023-05-10T03:20:29;11.60;99.90
26990;DHT22;14537;47.788;11.858;2023-05-10T03:23:04;11.60;99.90
26990;DHT22;14537;47.788;11.858;2023-05-10T03:25:31;11.70;99.90
26990;DHT22;14537;47.788;11.858;2023-05-10T03:27:58;11.70;99.90
26990;DHT22;14537;47.788;11.858;2023-05-10T03:30:24;11.60;99.90
26990;DHT22;14537;47.788;11.858;2023-05-10T03:32:50;11.60;99.90
26990;DHT22;14537;47.788;11.858;2023-05-10T03:35:16;11.60;99.90
26990;DHT22;14537;47.788;11.858;2023-05-10T03:37:42;11.50;99.90
26990;DHT22;14537;47.788;11.858;2023-05-10T03:40:09;11.50;99.90
26990;DHT22;14537;47.788;11.858;2023-05-10T03:42:35;11.60;99.90
26990;DHT22;14537;47.788;11.858;2023-05-10T03:45:01;11.50;99.90
26990;DHT22;14537;47.788;11.858;2023-05-10T03:47:27;11.60;99.90
26990;DHT22;14537;47.788;11.858;2023-05-10T03:49:52;11.60;99.90
26990;DHT22;14537;47.788;11.858;2023-05-10T03:52:18;11.50;99.90
26990;DHT22;14537;47.788;11.858;2023-05-10T03:54:43;11.40;99.90
26990;DHT22;14537;47.788;11.858;2023-05-10T03:57:09;11.40;99.90
26990;DHT22;14537;47.788;11.858;2023-05-10T03:59:35;11.40;99.90
26990;DHT22;14537;47.788;11.858;2023-05-10T04:02:00;11.30;99.90
26990;DHT22;14537;47.788;11.858;2023-05-10T04:04:26;11.30;99.90
26990;DHT22;14537;47.788;11.858;2023-05-10T04:06:52;11.30;99.90
26990;DHT22;14537;47.788;11.858;2023-05-10T04:09:17;11.40;99.90
26990;DHT22;14537;47.788;11.858;2023-05-10T04:11:43;11.30;99.90
26990;DHT22;14537;47.788;11.858;2023-05-10T04:14:09;11.30;99.90
26990;DHT22;14537;47.788;11.858;2023-05-10T04:16:34;11.30;99.90
26990;DHT22;14537;47.788;11.858;2023-05-10T04:19:00;11.30;99.90
26990;DHT22;14537;47.788;11.858;2023-05-10T04:21:25;11.30;99.90
26990;DHT22;14537;47.788;11.858;2023-05-10T04:23:51;11.30;99.90
26990;DHT22;14537;47.788;11.858;2023-05-10T04:26:17;11.30;99.90
26990;DHT22;14537;47.788;11.858;2023-05-10T04:28:42;11.20;99.90
26990;DHT22;14537;47.788;11.858;2023-05-10T04:31:09;11.20;99.90
26990;DHT22;14537;47.788;11.858;2023-05-10T04:33:36;11.20;99.90
26990;DHT22;14537;47.788;11.858;2023-05-10T04:36:02;11.20;99.90
26990;DHT22;14537;47.788;11.858;2023-05-10T04:38:28;11.20;99.90
26990;DHT22;14537;47.788;11.858;2023-05-10T04:40:54;11.10;99.90
26990;DHT22;14537;47.788;11.858;2023-05-10T04:43:20;11.20;99.90
26990;DHT22;14537;47.788;11.858;2023-05-10T04:45:46;11.00;99.90
26990;DHT22;14537;47.788;11.858;2023-05-10T04:48:11;11.00;99.90
26990;DHT22;14537;47.788;11.858;2023-05-10T04:50:38;11.00;99.90
26990;DHT22;14537;47.788;11.858;2023-05-10T04:53:04;11.00;99.90
26990;DHT22;14537;47.788;11.858;2023-05-10T04:55:30;10.90;99.90
26990;DHT22;14537;47.788;11.858;2023-05-10T04:57:56;10.90;99.90
26990;DHT22;14537;47.788;11.858;2023-05-10T05:00:23;11.00;99.90
26990;DHT22;14537;47.788;11.858;2023-05-10T05:02:48;11.00;99.90
26990;DHT22;14537;47.788;11.858;2023-05-10T05:05:14;11.00;99.90
26990;DHT22;14537;47.788;11.858;2023-05-10T05:07:40;11.00;99.90
26990;DHT22;14537;47.788;11.858;2023-05-10T05:10:06;11.00;99.90
26990;DHT22;14537;47.788;11.858;2023-05-10T05:12:32;11.00;99.90
26990;DHT22;14537;47.788;11.858;2023-05-10T05:14:58;11.00;99.90
26990;DHT22;14537;47.788;11.858;2023-05-10T05:17:24;11.00;99.90
26990;DHT22;14537;47.788;11.858;2023-05-10T05:19:49;10.90;99.90
26990;DHT22;14537;47.788;11.858;2023-05-10T05:22:15;10.90;99.90
26990;DHT22;14537;47.788;11.858;2023-05-10T05:24:40;11.00;99.90
26990;DHT22;14537;47.788;11.858;2023-05-10T05:27:06;11.00;99.90
26990;DHT22;14537;47.788;11.858;2023-05-10T05:29:32;11.00;99.90
26990;DHT22;14537;47.788;11.858;2023-05-10T05:31:58;11.10;99.90
26990;DHT22;14537;47.788;11.858;2023-05-10T05:34:23;11.10;99.90
26990;DHT22;14537;47.788;11.858;2023-05-10T05:36:49;11.10;99.90
26990;DHT22;14537;47.788;11.858;2023-05-10T05:39:15;11.20;99.90
26990;DHT22;14537;47.788;11.858;2023-05-10T05:41:41;11.10;99.90
26990;DHT22;14537;47.788;11.858;2023-05-10T05:44:07;11.10;99.90
26990;DHT22;14537;47.788;11.858;2023-05-10T05:46:32;11.10;99.90
26990;DHT22;14537;47.788;11.858;2023-05-10T05:48:58;11.20;99.90
26990;DHT22;14537;47.788;11.858;2023-05-10T05:51:23;11.10;99.90
26990;DHT22;14537;47.788;11.858;2023-05-10T05:53:49;11.10;99.90
26990;DHT22;14537;47.788;11.858;2023-05-10T05:56:14;11.10;99.90
26990;DHT22;14537;47.788;11.858;2023-05-10T05:58:40;11.10;99.90
26990;DHT22;14537;47.788;11.858;2023-05-10T06:01:05;11.10;99.90
26990;DHT22;14537;47.788;11.858;2023-05-10T06:03:31;11.00;99.90
26990;DHT22;14537;47.788;11.858;2023-05-10T06:05:58;11.00;99.90
26990;DHT22;14537;47.788;11.858;2023-05-10T06:08:23;11.00;99.90
26990;DHT22;14537;47.788;11.858;2023-05-10T06:10:49;11.00;99.90
26990;DHT22;14537;47.788;11.858;2023-05-10T06:13:14;11.00;99.90
26990;DHT22;14537;47.788;11.858;2023-05-10T06:15:40;11.00;99.90
26990;DHT22;14537;47.788;11.858;2023-05-10T06:18:06;11.10;99.90
26990;DHT22;14537;47.788;11.858;2023-05-10T06:20:32;11.00;99.90
26990;DHT22;14537;47.788;11.858;2023-05-10T06:22:57;11.10;99.90
26990;DHT22;14537;47.788;11.858;2023-05-10T06:25:23;11.00;99.90
26990;DHT22;14537;47.788;11.858;2023-05-10T06:27:49;11.00;99.90
26990;DHT22;14537;47.788;11.858;2023-05-10T06:30:15;11.00;99.90
26990;DHT22;14537;47.788;11.858;2023-05-10T06:32:41;10.90;99.90
26990;DHT22;14537;47.788;11.858;2023-05-10T06:35:07;11.00;99.90
26990;DHT22;14537;47.788;11.858;2023-05-10T06:37:33;10.90;99.90
26990;DHT22;14537;47.788;11.858;2023-05-10T06:39:59;10.90;99.90
26990;DHT22;14537;47.788;11.858;2023-05-10T06:42:25;11.00;99.90
26990;DHT22;14537;47.788;11.858;2023-05-10T06:44:52;10.90;99.90
26990;DHT22;14537;47.788;11.858;2023-05-10T06:47:18;10.80;99.90
26990;DHT22;14537;47.788;11.858;2023-05-10T06:49:43;10.80;99.90
26990;DHT22;14537;47.788;11.858;2023-05-10T06:52:09;10.90;99.90
26990;DHT22;14537;47.788;11.858;2023-05-10T06:54:34;11.00;99.90
26990;DHT22;14537;47.788;11.858;2023-05-10T06:57:00;11.00;99.90
26990;DHT22;14537;47.788;11.858;2023-05-10T06:59:25;11.10;99.90
26990;DHT22;14537;47.788;11.858;2023-05-10T07:01:51;11.20;99.90
26990;DHT22;14537;47.788;11.858;2023-05-10T07:04:17;11.20;99.90
26990;DHT22;14537;47.788;11.858;2023-05-10T07:06:43;11.30;99.90
26990;DHT22;14537;47.788;11.858;2023-05-10T07:09:08;11.40;99.90
26990;DHT22;14537;47.788;11.858;2023-05-10T07:11:35;11.40;99.90
26990;DHT22;14537;47.788;11.858;2023-05-10T07:14:00;11.40;99.90
26990;DHT22;14537;47.788;11.858;2023-05-10T07:16:26;11.40;99.90
26990;DHT22;14537;47.788;11.858;2023-05-10T07:18:52;11.50;99.90
26990;DHT22;14537;47.788;11.858;2023-05-10T07:21:18;11.40;99.90
26990;DHT22;14537;47.788;11.858;2023-05-10T07:23:44;11.40;99.90
26990;DHT22;14537;47.788;11.858;2023-05-10T07:26:10;11.50;99.90
26990;DHT22;14537;47.788;11.858;2023-05-10T07:28:36;11.40;99.90
26990;DHT22;14537;47.788;11.858;2023-05-10T07:31:03;11.40;99.90
26990;DHT22;14537;47.788;11.858;2023-05-10T07:33:28;11.40;99.90
26990;DHT22;14537;47.788;11.858;2023-05-10T07:35:54;11.30;99.90
26990;DHT22;14537;47.788;11.858;2023-05-10T07:38:20;11.30;99.90
26990;DHT22;14537;47.788;11.858;2023-05-10T07:40:45;11.20;99.90
26990;DHT22;14537;47.788;11.858;2023-05-10T07:43:11;11.30;99.90
26990;DHT22;14537;47.788;11.858;2023-05-10T07:45:36;11.30;99.90
26990;DHT22;14537;47.788;11.858;2023-05-10T07:48:02;11.30;99.90
26990;DHT22;14537;47.788;11.858;2023-05-10T07:50:28;11.30;99.90
26990;DHT22;14537;47.788;11.858;2023-05-10T07:52:53;11.30;99.90
26990;DHT22;14537;47.788;11.858;2023-05-10T07:55:19;11.30;99.90
26990;DHT22;14537;47.788;11.858;2023-05-10T07:57:46;11.20;99.90
26990;DHT22;14537;47.788;11.858;2023-05-10T08:00:13;11.20;99.90
26990;DHT22;14537;47.788;11.858;2023-05-10T08:02:41;11.30;99.90
26990;DHT22;14537;47.788;11.858;2023-05-10T08:05:07;11.30;99.90
26990;DHT22;14537;47.788;11.858;2023-05-10T08:07:33;11.40;99.90
26990;DHT22;14537;47.788;11.858;2023-05-10T08:09:59;11.60;99.90
26990;DHT22;14537;47.788;11.858;2023-05-10T08:12:24;11.80;99.90
26990;DHT22;14537;47.788;11.858;2023-05-10T08:14:50;11.90;99.90
26990;DHT22;14537;47.788;11.858;2023-05-10T08:17:16;11.90;99.90
26990;DHT22;14537;47.788;11.858;2023-05-10T08:19:41;11.90;99.90
26990;DHT22;14537;47.788;11.858;2023-05-10T08:22:07;12.00;99.90
26990;DHT22;14537;47.788;11.858;2023-05-10T08:24:32;12.10;99.90
26990;DHT22;14537;47.788;11.858;2023-05-10T08:27:07;12.20;99.90
26990;DHT22;14537;47.788;11.858;2023-05-10T08:29:34;12.30;99.90
26990;DHT22;14537;47.788;11.858;2023-05-10T08:32:00;12.30;99.90
26990;DHT22;14537;47.788;11.858;2023-05-10T08:34:26;12.20;99.90
26990;DHT22;14537;47.788;11.858;2023-05-10T08:36:52;12.20;99.90
26990;DHT22;14537;47.788;11.858;2023-05-10T08:39:18;12.00;99.90
26990;DHT22;14537;47.788;11.858;2023-05-10T08:41:44;11.90;99.90
26990;DHT22;14537;47.788;11.858;2023-05-10T08:44:10;11.80;99.90
26990;DHT22;14537;47.788;11.858;2023-05-10T08:46:37;11.90;99.90
26990;DHT22;14537;47.788;11.858;2023-05-10T08:49:06;12.00;99.90
26990;DHT22;14537;47.788;11.858;2023-05-10T08:51:36;12.20;99.90
26990;DHT22;14537;47.788;11.858;2023-05-10T08:54:03;12.30;99.90
26990;DHT22;14537;47.788;11.858;2023-05-10T08:56:29;12.50;99.90
26990;DHT22;14537;47.788;11.858;2023-05-10T08:58:56;12.70;99.90
26990;DHT22;14537;47.788;11.858;2023-05-10T09:01:21;12.80;99.90
26990;DHT22;14537;47.788;11.858;2023-05-10T09:03:49;12.90;99.90
26990;DHT22;14537;47.788;11.858;2023-05-10T09:06:15;13.10;99.90
26990;DHT22;14537;47.788;11.858;2023-05-10T09:08:41;13.30;99.90
26990;DHT22;14537;47.788;11.858;2023-05-10T09:11:08;13.40;99.90
26990;DHT22;14537;47.788;11.858;2023-05-10T09:13:35;13.30;99.90
26990;DHT22;14537;47.788;11.858;2023-05-10T09:16:01;13.30;99.90
26990;DHT22;14537;47.788;11.858;2023-05-10T09:18:27;13.30;99.90
26990;DHT22;14537;47.788;11.858;2023-05-10T09:20:53;13.40;99.90
26990;DHT22;14537;47.788;11.858;2023-05-10T09:23:19;13.40;99.90
26990;DHT22;14537;47.788;11.858;2023-05-10T09:25:45;13.30;99.90
26990;DHT22;14537;47.788;11.858;2023-05-10T09:28:11;13.40;99.90
26990;DHT22;14537;47.788;11.858;2023-05-10T09:30:37;13.50;99.90
26990;DHT22;14537;47.788;11.858;2023-05-10T09:33:03;13.50;99.90
26990;DHT22;14537;47.788;11.858;2023-05-10T09:35:31;13.70;99.90
26990;DHT22;14537;47.788;11.858;2023-05-10T09:37:59;13.50;99.90
26990;DHT22;14537;47.788;11.858;2023-05-10T09:40:27;13.50;99.90
26990;DHT22;14537;47.788;11.858;2023-05-10T09:43:08;13.30;99.90
26990;DHT22;14537;47.788;11.858;2023-05-10T09:45:36;13.20;99.90
26990;DHT22;14537;47.788;11.858;2023-05-10T09:48:02;12.80;99.90
26990;DHT22;14537;47.788;11.858;2023-05-10T09:50:29;12.80;99.90
26990;DHT22;14537;47.788;11.858;2023-05-10T09:55:24;12.20;99.90
26990;DHT22;14537;47.788;11.858;2023-05-10T09:57:59;12.10;99.90
26990;DHT22;14537;47.788;11.858;2023-05-10T10:00:25;12.10;99.90
26990;DHT22;14537;47.788;11.858;2023-05-10T10:02:56;11.90;99.90
26990;DHT22;14537;47.788;11.858;2023-05-10T10:05:31;11.90;99.90
26990;DHT22;14537;47.788;11.858;2023-05-10T10:07:58;11.80;99.90
26990;DHT22;14537;47.788;11.858;2023-05-10T10:10:25;11.80;99.90
26990;DHT22;14537;47.788;11.858;2023-05-10T10:12:51;11.70;99.90
26990;DHT22;14537;47.788;11.858;2023-05-10T10:15:17;11.80;99.90
26990;DHT22;14537;47.788;11.858;2023-05-10T10:17:43;11.90;99.90
26990;DHT22;14537;47.788;11.858;2023-05-10T10:20:09;11.80;99.90
26990;DHT22;14537;47.788;11.858;2023-05-10T10:22:37;11.80;99.90
26990;DHT22;14537;47.788;11.858;2023-05-10T10:25:04;11.70;99.90
26990;DHT22;14537;47.788;11.858;2023-05-10T10:27:55;11.90;99.90
26990;DHT22;14537;47.788;11.858;2023-05-10T10:30:41;12.00;99.90
26990;DHT22;14537;47.788;11.858;2023-05-10T10:36:02;12.20;99.90
26990;DHT22;14537;47.788;11.858;2023-05-10T10:44:24;12.80;99.90
26990;DHT22;14537;47.788;11.858;2023-05-10T10:49:30;13.00;99.90
26990;DHT22;14537;47.788;11.858;2023-05-10T10:55:00;12.90;99.90
26990;DHT22;14537;47.788;11.858;2023-05-10T10:57:28;12.90;99.90
26990;DHT22;14537;47.788;11.858;2023-05-10T11:00:24;12.80;99.90
26990;DHT22;14537;47.788;11.858;2023-05-10T11:02:56;12.80;99.90
26990;DHT22;14537;47.788;11.858;2023-05-10T11:08:42;12.70;99.90
26990;DHT22;14537;47.788;11.858;2023-05-10T11:11:05;12.60;99.90
26990;DHT22;14537;47.788;11.858;2023-05-10T11:16:24;12.60;99.90
26990;DHT22;14537;47.788;11.858;2023-05-10T11:19:05;12.70;99.90
26990;DHT22;14537;47.788;11.858;2023-05-10T11:21:33;12.80;99.90
26990;DHT22;14537;47.788;11.858;2023-05-10T11:24:00;12.90;99.90
26990;DHT22;14537;47.788;11.858;2023-05-10T11:26:30;12.80;99.90
26990;DHT22;14537;47.788;11.858;2023-05-10T11:28:56;12.70;99.90
26990;DHT22;14537;47.788;11.858;2023-05-10T11:31:24;12.50;99.90
26990;DHT22;14537;47.788;11.858;2023-05-10T11:33:54;12.40;99.90
26990;DHT22;14537;47.788;11.858;2023-05-10T11:36:25;12.30;99.90
26990;DHT22;14537;47.788;11.858;2023-05-10T11:38:51;12.20;99.90
26990;DHT22;14537;47.788;11.858;2023-05-10T11:41:18;12.00;99.90
26990;DHT22;14537;47.788;11.858;2023-05-10T11:43:47;11.80;99.90
26990;DHT22;14537;47.788;11.858;2023-05-10T11:46:14;11.70;99.90
26990;DHT22;14537;47.788;11.858;2023-05-10T11:48:41;11.60;99.90
26990;DHT22;14537;47.788;11.858;2023-05-10T11:51:08;11.50;99.90
26990;DHT22;14537;47.788;11.858;2023-05-10T11:53:34;11.40;99.90
26990;DHT22;14537;47.788;11.858;2023-05-10T11:56:07;11.50;99.90
26990;DHT22;14537;47.788;11.858;2023-05-10T11:58:33;11.50;99.90
26990;DHT22;14537;47.788;11.858;2023-05-10T12:00:59;11.50;99.90
26990;DHT22;14537;47.788;11.858;2023-05-10T12:03:26;11.70;99.90
26990;DHT22;14537;47.788;11.858;2023-05-10T12:05:52;11.60;99.90
26990;DHT22;14537;47.788;11.858;2023-05-10T12:08:23;11.70;99.90
26990;DHT22;14537;47.788;11.858;2023-05-10T12:10:49;11.70;99.90
26990;DHT22;14537;47.788;11.858;2023-05-10T12:13:15;11.70;99.90
26990;DHT22;14537;47.788;11.858;2023-05-10T12:15:41;11.90;99.90
26990;DHT22;14537;47.788;11.858;2023-05-10T12:18:13;11.80;99.90
26990;DHT22;14537;47.788;11.858;2023-05-10T12:20:40;12.00;99.90
26990;DHT22;14537;47.788;11.858;2023-05-10T12:23:08;12.00;99.90
26990;DHT22;14537;47.788;11.858;2023-05-10T12:25:36;11.90;99.90
26990;DHT22;14537;47.788;11.858;2023-05-10T12:28:06;12.00;99.90
26990;DHT22;14537;47.788;11.858;2023-05-10T12:30:34;11.80;99.90
26990;DHT22;14537;47.788;11.858;2023-05-10T12:35:33;11.90;99.90
26990;DHT22;14537;47.788;11.858;2023-05-10T12:37:59;11.70;99.90
26990;DHT22;14537;47.788;11.858;2023-05-10T12:40:25;11.80;99.90
26990;DHT22;14537;47.788;11.858;2023-05-10T12:42:51;11.80;99.90
26990;DHT22;14537;47.788;11.858;2023-05-10T12:45:18;11.80;99.90
26990;DHT22;14537;47.788;11.858;2023-05-10T12:47:43;11.80;99.90
26990;DHT22;14537;47.788;11.858;2023-05-10T12:50:10;11.80;99.90
26990;DHT22;14537;47.788;11.858;2023-05-10T12:52:35;11.80;99.90
26990;DHT22;14537;47.788;11.858;2023-05-10T12:55:01;11.90;99.90
26990;DHT22;14537;47.788;11.858;2023-05-10T12:57:28;12.00;99.90
26990;DHT22;14537;47.788;11.858;2023-05-10T12:59:54;12.00;99.90
26990;DHT22;14537;47.788;11.858;2023-05-10T13:02:20;12.20;99.90
26990;DHT22;14537;47.788;11.858;2023-05-10T13:04:47;12.30;99.90
26990;DHT22;14537;47.788;11.858;2023-05-10T13:07:13;12.20;99.90
26990;DHT22;14537;47.788;11.858;2023-05-10T13:09:39;12.30;99.90
26990;DHT22;14537;47.788;11.858;2023-05-10T13:12:05;12.10;99.90
26990;DHT22;14537;47.788;11.858;2023-05-10T13:14:31;12.00;99.90
26990;DHT22;14537;47.788;11.858;2023-05-10T13:16:56;12.10;99.90
26990;DHT22;14537;47.788;11.858;2023-05-10T13:19:22;12.00;99.90
26990;DHT22;14537;47.788;11.858;2023-05-10T13:21:48;11.80;99.90
26990;DHT22;14537;47.788;11.858;2023-05-10T13:24:13;11.70;99.90
26990;DHT22;14537;47.788;11.858;2023-05-10T13:26:43;11.80;99.90
26990;DHT22;14537;47.788;11.858;2023-05-10T13:29:08;11.80;99.90
26990;DHT22;14537;47.788;11.858;2023-05-10T13:31:34;11.90;99.90
26990;DHT22;14537;47.788;11.858;2023-05-10T13:34:01;11.90;99.90
26990;DHT22;14537;47.788;11.858;2023-05-10T13:36:26;11.80;99.90
26990;DHT22;14537;47.788;11.858;2023-05-10T13:38:52;11.90;99.90
26990;DHT22;14537;47.788;11.858;2023-05-10T13:41:18;11.80;99.90
26990;DHT22;14537;47.788;11.858;2023-05-10T13:43:43;11.70;99.90
26990;DHT22;14537;47.788;11.858;2023-05-10T13:46:09;11.90;99.90
26990;DHT22;14537;47.788;11.858;2023-05-10T13:48:34;11.80;99.90
26990;DHT22;14537;47.788;11.858;2023-05-10T13:51:02;11.80;99.90
26990;DHT22;14537;47.788;11.858;2023-05-10T13:53:28;11.80;99.90
26990;DHT22;14537;47.788;11.858;2023-05-10T13:55:53;11.80;99.90
26990;DHT22;14537;47.788;11.858;2023-05-10T13:58:19;11.80;99.90
26990;DHT22;14537;47.788;11.858;2023-05-10T14:00:44;11.60;99.90
26990;DHT22;14537;47.788;11.858;2023-05-10T14:03:10;11.40;99.90
26990;DHT22;14537;47.788;11.858;2023-05-10T14:05:36;11.40;99.90
26990;DHT22;14537;47.788;11.858;2023-05-10T14:08:02;11.30;99.90
26990;DHT22;14537;47.788;11.858;2023-05-10T14:10:28;11.30;99.90
26990;DHT22;14537;47.788;11.858;2023-05-10T14:12:53;11.20;99.90
26990;DHT22;14537;47.788;11.858;2023-05-10T14:15:19;11.20;99.90
26990;DHT22;14537;47.788;11.858;2023-05-10T14:17:44;11.10;99.90
26990;DHT22;14537;47.788;11.858;2023-05-10T14:20:10;11.10;99.90
26990;DHT22;14537;47.788;11.858;2023-05-10T14:22:36;11.20;99.90
26990;DHT22;14537;47.788;11.858;2023-05-10T14:25:02;11.20;99.90
26990;DHT22;14537;47.788;11.858;2023-05-10T14:27:27;11.20;99.90
26990;DHT22;14537;47.788;11.858;2023-05-10T14:29:53;11.20;99.90
26990;DHT22;14537;47.788;11.858;2023-05-10T14:32:19;11.30;99.90
26990;DHT22;14537;47.788;11.858;2023-05-10T14:34:45;11.30;99.90
26990;DHT22;14537;47.788;11.858;2023-05-10T14:37:13;11.20;99.90
26990;DHT22;14537;47.788;11.858;2023-05-10T14:39:39;11.30;99.90
26990;DHT22;14537;47.788;11.858;2023-05-10T14:42:05;11.20;99.90
26990;DHT22;14537;47.788;11.858;2023-05-10T14:44:31;11.10;99.90
26990;DHT22;14537;47.788;11.858;2023-05-10T14:46:56;11.10;99.90
26990;DHT22;14537;47.788;11.858;2023-05-10T14:49:22;11.10;99.90
26990;DHT22;14537;47.788;11.858;2023-05-10T14:51:50;11.20;99.90
26990;DHT22;14537;47.788;11.858;2023-05-10T14:54:16;11.10;99.90
26990;DHT22;14537;47.788;11.858;2023-05-10T14:56:42;11.10;99.90
26990;DHT22;14537;47.788;11.858;2023-05-10T14:59:08;11.00;99.90
26990;DHT22;14537;47.788;11.858;2023-05-10T15:01:33;10.90;99.90
26990;DHT22;14537;47.788;11.858;2023-05-10T15:04:05;10.90;99.90
26990;DHT22;14537;47.788;11.858;2023-05-10T15:06:32;10.80;99.90
26990;DHT22;14537;47.788;11.858;2023-05-10T15:08:58;10.80;99.90
26990;DHT22;14537;47.788;11.858;2023-05-10T15:11:23;10.70;99.90
26990;DHT22;14537;47.788;11.858;2023-05-10T15:13:49;10.70;99.90
26990;DHT22;14537;47.788;11.858;2023-05-10T15:16:14;10.70;99.90
26990;DHT22;14537;47.788;11.858;2023-05-10T15:18:40;10.80;99.90
26990;DHT22;14537;47.788;11.858;2023-05-10T15:21:06;10.80;99.90
26990;DHT22;14537;47.788;11.858;2023-05-10T15:23:31;10.70;99.90
26990;DHT22;14537;47.788;11.858;2023-05-10T15:25:57;10.80;99.90
26990;DHT22;14537;47.788;11.858;2023-05-10T15:28:23;10.80;99.90
26990;DHT22;14537;47.788;11.858;2023-05-10T15:30:48;10.80;99.90
26990;DHT22;14537;47.788;11.858;2023-05-10T15:33:14;10.90;99.90
26990;DHT22;14537;47.788;11.858;2023-05-10T15:35:39;10.90;99.90
26990;DHT22;14537;47.788;11.858;2023-05-10T15:38:06;11.00;99.90
26990;DHT22;14537;47.788;11.858;2023-05-10T15:40:32;11.00;99.90
26990;DHT22;14537;47.788;11.858;2023-05-10T15:42:58;10.90;99.90
26990;DHT22;14537;47.788;11.858;2023-05-10T15:45:23;10.80;99.90
26990;DHT22;14537;47.788;11.858;2023-05-10T15:47:49;10.60;99.90
26990;DHT22;14537;47.788;11.858;2023-05-10T15:50:16;10.60;99.90
26990;DHT22;14537;47.788;11.858;2023-05-10T15:52:42;10.50;99.90
26990;DHT22;14537;47.788;11.858;2023-05-10T15:55:08;10.40;99.90
26990;DHT22;14537;47.788;11.858;2023-05-10T15:57:38;10.40;99.90
26990;DHT22;14537;47.788;11.858;2023-05-10T16:00:05;10.40;99.90